sensor_id;sensor_type;location;lat;lon;timestamp;P1;durP1;ratioP1;P2;durP2;ratioP2
53939;SDS011;39850;43.324;21.916;2023-12-04T00:01:54;16.0;;;15.0;;
53939;SDS011;39850;43.324;21.916;2023-12-04T00:06:31;17.0;;;15.0;;
53939;SDS011;39850;43.324;21.916;2023-12-04T00:11:08;17.0;;;15.0;;
53939;SDS011;39850;43.324;21.916;2023-12-04T00:15:45;17.0;;;16.0;;
53939;SDS011;39850;43.324;21.916;2023-12-04T00:20:21;17.0;;;16.0;;
53939;SDS011;39850;43.324;21.916;2023-12-04T00:24:58;17.0;;;16.0;;
53939;SDS011;39850;43.324;21.916;2023-12-04T00:29:34;17.0;;;16.0;;
53939;SDS011;39850;43.324;21.916;2023-12-04T00:34:11;17.0;;;16.0;;
53939;SDS011;39850;43.324;21.916;2023-12-04T01:06:25;15.0;;;14.0;;
53939;SDS011;39850;43.324;21.916;2023-12-04T01:11:02;15.0;;;14.0;;
53939;SDS011;39850;43.324;21.916;2023-12-04T01:15:39;15.0;;;14.0;;
53939;SDS011;39850;43.324;21.916;2023-12-04T01:20:16;15.0;;;14.0;;
53939;SDS011;39850;43.324;21.916;2023-12-04T01:24:52;15.0;;;14.0;;
53939;SDS011;39850;43.324;21.916;2023-12-04T01:29:28;15.0;;;15.0;;
53939;SDS011;39850;43.324;21.916;2023-12-04T01:34:05;15.0;;;15.0;;
53939;SDS011;39850;43.324;21.916;2023-12-04T01:38:41;15.0;;;15.0;;
53939;SDS011;39850;43.324;21.916;2023-12-04T01:43:17;15.0;;;15.0;;
53939;SDS011;39850;43.324;21.916;2023-12-04T01:47:55;15.0;;;15.0;;
53939;SDS011;39850;43.324;21.916;2023-12-04T01:52:33;15.0;;;15.0;;
53939;SDS011;39850;43.324;21.916;2023-12-04T02:29:52;16.0;;;15.0;;
53939;SDS011;39850;43.324;21.916;2023-12-04T02:34:37;16.0;;;15.0;;
53939;SDS011;39850;43.324;21.916;2023-12-04T02:39:18;16.0;;;15.0;;
53939;SDS011;39850;43.324;21.916;2023-12-04T02:43:55;16.0;;;15.0;;
53939;SDS011;39850;43.324;21.916;2023-12-04T02:48:32;16.0;;;15.0;;
53939;SDS011;39850;43.324;21.916;2023-12-04T02:53:08;16.0;;;15.0;;
53939;SDS011;39850;43.324;21.916;2023-12-04T02:57:45;16.0;;;16.0;;
53939;SDS011;39850;43.324;21.916;2023-12-04T03:02:21;16.0;;;16.0;;
53939;SDS011;39850;43.324;21.916;2023-12-04T03:06:58;17.0;;;16.0;;
53939;SDS011;39850;43.324;21.916;2023-12-04T03:11:34;17.0;;;16.0;;
53939;SDS011;39850;43.324;21.916;2023-12-04T03:48:35;17.0;;;16.0;;
53939;SDS011;39850;43.324;21.916;2023-12-04T03:53:12;17.0;;;16.0;;
53939;SDS011;39850;43.324;21.916;2023-12-04T03:57:49;18.0;;;16.0;;
53939;SDS011;39850;43.324;21.916;2023-12-04T04:02:25;18.0;;;16.0;;
53939;SDS011;39850;43.324;21.916;2023-12-04T04:07:01;18.0;;;17.0;;
53939;SDS011;39850;43.324;21.916;2023-12-04T04:11:38;18.0;;;17.0;;
53939;SDS011;39850;43.324;21.916;2023-12-04T04:16:16;22.0;;;20.0;;
53939;SDS011;39850;43.324;21.916;2023-12-04T04:20:52;22.0;;;20.0;;
53939;SDS011;39850;43.324;21.916;2023-12-04T04:25:28;22.0;;;20.0;;
53939;SDS011;39850;43.324;21.916;2023-12-04T04:30:09;27.0;;;23.0;;
53939;SDS011;39850;43.324;21.916;2023-12-04T04:34:46;27.0;;;23.0;;
53939;SDS011;39850;43.324;21.916;2023-12-04T05:06:59;18.0;;;16.0;;
53939;SDS011;39850;43.324;21.916;2023-12-04T05:11:36;18.0;;;16.0;;
53939;SDS011;39850;43.324;21.916;2023-12-04T05:16:13;17.0;;;16.0;;
53939;SDS011;39850;43.324;21.916;2023-12-04T05:20:51;17.0;;;16.0;;
53939;SDS011;39850;43.324;21.916;2023-12-04T05:25:27;17.0;;;16.0;;
53939;SDS011;39850;43.324;21.916;2023-12-04T05:30:08;18.0;;;16.0;;
53939;SDS011;39850;43.324;21.916;2023-12-04T05:34:46;18.0;;;16.0;;
53939;SDS011;39850;43.324;21.916;2023-12-04T05:39:22;18.0;;;16.0;;
53939;SDS011;39850;43.324;21.916;2023-12-04T05:43:59;18.0;;;16.0;;
53939;SDS011;39850;43.324;21.916;2023-12-04T05:48:35;20.0;;;18.0;;
53939;SDS011;39850;43.324;21.916;2023-12-04T05:53:12;20.0;;;18.0;;
53939;SDS011;39850;43.324;21.916;2023-12-04T06:30:09;44.0;;;35.0;;
53939;SDS011;39850;43.324;21.916;2023-12-04T06:34:49;44.0;;;35.0;;
53939;SDS011;39850;43.324;21.916;2023-12-04T06:39:37;40.0;;;32.0;;
53939;SDS011;39850;43.324;21.916;2023-12-04T06:44:17;40.0;;;32.0;;
53939;SDS011;39850;43.324;21.916;2023-12-04T06:49:00;38.0;;;31.0;;
53939;SDS011;39850;43.324;21.916;2023-12-04T06:53:38;38.0;;;31.0;;
53939;SDS011;39850;43.324;21.916;2023-12-04T06:58:14;37.0;;;30.0;;
53939;SDS011;39850;43.324;21.916;2023-12-04T07:02:51;37.0;;;30.0;;
53939;SDS011;39850;43.324;21.916;2023-12-04T07:07:27;38.0;;;31.0;;
53939;SDS011;39850;43.324;21.916;2023-12-04T07:12:05;38.0;;;31.0;;
53939;SDS011;39850;43.324;21.916;2023-12-04T07:48:57;29.0;;;25.0;;
53939;SDS011;39850;43.324;21.916;2023-12-04T07:53:33;29.0;;;25.0;;
53939;SDS011;39850;43.324;21.916;2023-12-04T07:58:10;30.0;;;26.0;;
53939;SDS011;39850;43.324;21.916;2023-12-04T08:02:46;30.0;;;26.0;;
53939;SDS011;39850;43.324;21.916;2023-12-04T08:07:23;29.0;;;25.0;;
53939;SDS011;39850;43.324;21.916;2023-12-04T08:11:59;29.0;;;25.0;;
53939;SDS011;39850;43.324;21.916;2023-12-04T08:16:36;30.0;;;25.0;;
53939;SDS011;39850;43.324;21.916;2023-12-04T08:21:13;30.0;;;25.0;;
53939;SDS011;39850;43.324;21.916;2023-12-04T08:25:49;30.0;;;25.0;;
53939;SDS011;39850;43.324;21.916;2023-12-04T08:30:26;28.0;;;24.0;;
53939;SDS011;39850;43.324;21.916;2023-12-04T08:35:04;28.0;;;24.0;;
53939;SDS011;39850;43.324;21.916;2023-12-04T09:07:18;22.0;;;17.0;;
53939;SDS011;39850;43.324;21.916;2023-12-04T09:11:54;22.0;;;17.0;;
53939;SDS011;39850;43.324;21.916;2023-12-04T09:16:31;22.0;;;17.0;;
53939;SDS011;39850;43.324;21.916;2023-12-04T09:21:07;20.0;;;16.0;;
53939;SDS011;39850;43.324;21.916;2023-12-04T09:25:44;20.0;;;16.0;;
53939;SDS011;39850;43.324;21.916;2023-12-04T09:30:20;18.0;;;16.0;;
53939;SDS011;39850;43.324;21.916;2023-12-04T09:34:57;18.0;;;16.0;;
53939;SDS011;39850;43.324;21.916;2023-12-04T09:39:33;18.0;;;16.0;;
53939;SDS011;39850;43.324;21.916;2023-12-04T09:44:10;18.0;;;16.0;;
53939;SDS011;39850;43.324;21.916;2023-12-04T09:48:50;17.0;;;16.0;;
53939;SDS011;39850;43.324;21.916;2023-12-04T09:53:36;17.0;;;16.0;;
53939;SDS011;39850;43.324;21.916;2023-12-04T10:30:53;14.0;;;14.0;;
53939;SDS011;39850;43.324;21.916;2023-12-04T10:35:36;14.0;;;14.0;;
53939;SDS011;39850;43.324;21.916;2023-12-04T10:40:27;14.0;;;14.0;;
53939;SDS011;39850;43.324;21.916;2023-12-04T10:45:08;14.0;;;14.0;;
53939;SDS011;39850;43.324;21.916;2023-12-04T10:49:48;14.0;;;14.0;;
53939;SDS011;39850;43.324;21.916;2023-12-04T10:54:27;14.0;;;14.0;;
53939;SDS011;39850;43.324;21.916;2023-12-04T10:59:27;41.0;;;24.0;;
53939;SDS011;39850;43.324;21.916;2023-12-04T11:04:25;41.0;;;24.0;;
53939;SDS011;39850;43.324;21.916;2023-12-04T11:09:11;68.0;;;34.0;;
53939;SDS011;39850;43.324;21.916;2023-12-04T11:14:04;68.0;;;34.0;;
53939;SDS011;39850;43.324;21.916;2023-12-04T11:51:46;19.0;;;17.0;;
53939;SDS011;39850;43.324;21.916;2023-12-04T11:56:22;19.0;;;17.0;;
53939;SDS011;39850;43.324;21.916;2023-12-04T12:01:00;19.0;;;17.0;;
53939;SDS011;39850;43.324;21.916;2023-12-04T12:05:37;19.0;;;17.0;;
53939;SDS011;39850;43.324;21.916;2023-12-04T12:10:17;19.0;;;17.0;;
53939;SDS011;39850;43.324;21.916;2023-12-04T12:14:53;19.0;;;17.0;;
53939;SDS011;39850;43.324;21.916;2023-12-04T12:19:29;18.0;;;17.0;;
53939;SDS011;39850;43.324;21.916;2023-12-04T12:24:07;18.0;;;17.0;;
53939;SDS011;39850;43.324;21.916;2023-12-04T12:28:45;18.0;;;17.0;;
53939;SDS011;39850;43.324;21.916;2023-12-04T12:33:23;18.0;;;17.0;;
53939;SDS011;39850;43.324;21.916;2023-12-04T13:10:24;19.0;;;18.0;;
53939;SDS011;39850;43.324;21.916;2023-12-04T13:15:03;19.0;;;18.0;;
53939;SDS011;39850;43.324;21.916;2023-12-04T13:19:41;19.0;;;18.0;;
53939;SDS011;39850;43.324;21.916;2023-12-04T13:24:17;19.0;;;18.0;;
53939;SDS011;39850;43.324;21.916;2023-12-04T13:28:54;19.0;;;18.0;;
53939;SDS011;39850;43.324;21.916;2023-12-04T13:33:30;19.0;;;18.0;;
53939;SDS011;39850;43.324;21.916;2023-12-04T13:38:07;19.0;;;18.0;;
53939;SDS011;39850;43.324;21.916;2023-12-04T13:42:43;19.0;;;18.0;;
53939;SDS011;39850;43.324;21.916;2023-12-04T13:47:20;19.0;;;18.0;;
53939;SDS011;39850;43.324;21.916;2023-12-04T13:51:56;19.0;;;18.0;;
53939;SDS011;39850;43.324;21.916;2023-12-04T13:56:32;19.0;;;18.0;;
53939;SDS011;39850;43.324;21.916;2023-12-04T14:28:48;22.0;;;20.0;;
53939;SDS011;39850;43.324;21.916;2023-12-04T14:33:24;22.0;;;20.0;;
53939;SDS011;39850;43.324;21.916;2023-12-04T14:38:01;22.0;;;21.0;;
53939;SDS011;39850;43.324;21.916;2023-12-04T14:42:37;22.0;;;21.0;;
53939;SDS011;39850;43.324;21.916;2023-12-04T14:47:14;22.0;;;21.0;;
53939;SDS011;39850;43.324;21.916;2023-12-04T14:51:50;23.0;;;22.0;;
53939;SDS011;39850;43.324;21.916;2023-12-04T14:56:26;23.0;;;22.0;;
53939;SDS011;39850;43.324;21.916;2023-12-04T15:01:04;24.0;;;22.0;;
53939;SDS011;39850;43.324;21.916;2023-12-04T15:05:41;24.0;;;22.0;;
53939;SDS011;39850;43.324;21.916;2023-12-04T15:10:17;26.0;;;23.0;;
53939;SDS011;39850;43.324;21.916;2023-12-04T15:14:53;26.0;;;23.0;;
53939;SDS011;39850;43.324;21.916;2023-12-04T15:51:45;60.0;;;47.0;;
53939;SDS011;39850;43.324;21.916;2023-12-04T15:56:21;60.0;;;47.0;;
53939;SDS011;39850;43.324;21.916;2023-12-04T16:00:58;65.0;;;50.0;;
53939;SDS011;39850;43.324;21.916;2023-12-04T16:05:35;65.0;;;50.0;;
53939;SDS011;39850;43.324;21.916;2023-12-04T16:10:12;70.0;;;54.0;;
53939;SDS011;39850;43.324;21.916;2023-12-04T16:14:50;70.0;;;54.0;;
53939;SDS011;39850;43.324;21.916;2023-12-04T16:19:26;92.0;;;70.0;;
53939;SDS011;39850;43.324;21.916;2023-12-04T16:24:04;92.0;;;70.0;;
53939;SDS011;39850;43.324;21.916;2023-12-04T16:28:41;113.0;;;87.0;;
53939;SDS011;39850;43.324;21.916;2023-12-04T16:33:17;113.0;;;87.0;;
53939;SDS011;39850;43.324;21.916;2023-12-04T16:37:54;113.0;;;87.0;;
53939;SDS011;39850;43.324;21.916;2023-12-04T17:10:09;80.0;;;60.0;;
53939;SDS011;39850;43.324;21.916;2023-12-04T17:14:46;80.0;;;60.0;;
53939;SDS011;39850;43.324;21.916;2023-12-04T17:19:23;81.0;;;58.0;;
53939;SDS011;39850;43.324;21.916;2023-12-04T17:23:59;81.0;;;58.0;;
53939;SDS011;39850;43.324;21.916;2023-12-04T17:28:36;82.0;;;60.0;;
53939;SDS011;39850;43.324;21.916;2023-12-04T17:33:13;82.0;;;60.0;;
53939;SDS011;39850;43.324;21.916;2023-12-04T17:37:50;82.0;;;60.0;;
53939;SDS011;39850;43.324;21.916;2023-12-04T17:42:26;102.0;;;68.0;;
53939;SDS011;39850;43.324;21.916;2023-12-04T17:47:02;102.0;;;68.0;;
53939;SDS011;39850;43.324;21.916;2023-12-04T17:51:39;121.0;;;81.0;;
53939;SDS011;39850;43.324;21.916;2023-12-04T17:56:15;121.0;;;81.0;;
53939;SDS011;39850;43.324;21.916;2023-12-04T18:33:14;87.0;;;64.0;;
53939;SDS011;39850;43.324;21.916;2023-12-04T18:38:18;87.0;;;64.0;;
53939;SDS011;39850;43.324;21.916;2023-12-04T18:43:01;88.0;;;64.0;;
53939;SDS011;39850;43.324;21.916;2023-12-04T18:48:02;88.0;;;64.0;;
53939;SDS011;39850;43.324;21.916;2023-12-04T18:52:42;90.0;;;64.0;;
53939;SDS011;39850;43.324;21.916;2023-12-04T18:57:19;90.0;;;64.0;;
53939;SDS011;39850;43.324;21.916;2023-12-04T19:01:55;136.0;;;86.0;;
53939;SDS011;39850;43.324;21.916;2023-12-04T19:06:32;136.0;;;86.0;;
53939;SDS011;39850;43.324;21.916;2023-12-04T19:11:08;182.0;;;109.0;;
53939;SDS011;39850;43.324;21.916;2023-12-04T19:15:44;182.0;;;109.0;;
53939;SDS011;39850;43.324;21.916;2023-12-04T19:52:34;104.0;;;73.0;;
53939;SDS011;39850;43.324;21.916;2023-12-04T19:57:11;104.0;;;73.0;;
53939;SDS011;39850;43.324;21.916;2023-12-04T20:01:47;98.0;;;70.0;;
53939;SDS011;39850;43.324;21.916;2023-12-04T20:06:23;98.0;;;70.0;;
53939;SDS011;39850;43.324;21.916;2023-12-04T20:11:00;93.0;;;67.0;;
53939;SDS011;39850;43.324;21.916;2023-12-04T20:15:36;93.0;;;67.0;;
53939;SDS011;39850;43.324;21.916;2023-12-04T20:20:13;92.0;;;66.0;;
53939;SDS011;39850;43.324;21.916;2023-12-04T20:24:49;92.0;;;66.0;;
53939;SDS011;39850;43.324;21.916;2023-12-04T20:29:25;90.0;;;65.0;;
53939;SDS011;39850;43.324;21.916;2023-12-04T20:34:02;90.0;;;65.0;;
53939;SDS011;39850;43.324;21.916;2023-12-04T20:38:38;90.0;;;65.0;;
53939;SDS011;39850;43.324;21.916;2023-12-04T21:10:53;124.0;;;87.0;;
53939;SDS011;39850;43.324;21.916;2023-12-04T21:15:30;124.0;;;87.0;;
53939;SDS011;39850;43.324;21.916;2023-12-04T21:20:11;138.0;;;95.0;;
53939;SDS011;39850;43.324;21.916;2023-12-04T21:24:49;138.0;;;95.0;;
53939;SDS011;39850;43.324;21.916;2023-12-04T21:29:25;133.0;;;93.0;;
53939;SDS011;39850;43.324;21.916;2023-12-04T21:34:02;133.0;;;93.0;;
53939;SDS011;39850;43.324;21.916;2023-12-04T21:38:39;133.0;;;93.0;;
53939;SDS011;39850;43.324;21.916;2023-12-04T21:43:15;143.0;;;98.0;;
53939;SDS011;39850;43.324;21.916;2023-12-04T21:47:52;143.0;;;98.0;;
53939;SDS011;39850;43.324;21.916;2023-12-04T21:52:29;133.0;;;93.0;;
53939;SDS011;39850;43.324;21.916;2023-12-04T21:57:05;133.0;;;93.0;;
53939;SDS011;39850;43.324;21.916;2023-12-04T22:33:58;304.0;;;192.0;;
53939;SDS011;39850;43.324;21.916;2023-12-04T22:38:37;304.0;;;192.0;;
53939;SDS011;39850;43.324;21.916;2023-12-04T22:43:13;336.0;;;212.0;;
53939;SDS011;39850;43.324;21.916;2023-12-04T22:47:50;336.0;;;212.0;;
53939;SDS011;39850;43.324;21.916;2023-12-04T22:52:26;304.0;;;192.0;;
53939;SDS011;39850;43.324;21.916;2023-12-04T22:57:05;304.0;;;192.0;;
53939;SDS011;39850;43.324;21.916;2023-12-04T23:01:41;272.0;;;176.0;;
53939;SDS011;39850;43.324;21.916;2023-12-04T23:06:18;272.0;;;176.0;;
53939;SDS011;39850;43.324;21.916;2023-12-04T23:10:54;176.0;;;120.0;;
53939;SDS011;39850;43.324;21.916;2023-12-04T23:15:30;176.0;;;120.0;;
53939;SDS011;39850;43.324;21.916;2023-12-04T23:52:25;177.0;;;121.0;;
53939;SDS011;39850;43.324;21.916;2023-12-04T23:57:01;177.0;;;121.0;;
